Time;durP1;ratioP1;P1;durP2;ratioP2;P2;SDS_P1;SDS_P2;PMS_P1;PMS_P2;Temp;Humidity;BMP_temperature;BMP_pressure;BME280_temperature;BME280_humidity;BME280_pressure;Samples;Min_cycle;Max_cycle;Signal;HPM_P1;HPM_P2
2022/09/08 00:00:01;;;;;;;;;;;;;;;;;;2132743;27;19923;-44
2022/09/08 00:01:02;;;;;;;;;;;;;;;;;;2132918;27;20422;-44
2022/09/08 00:02:03;;;;;;;;;;;;;;;;;;2132610;27;19923;-44
2022/09/08 00:03:03;;;;;;;;;;;;;;;;;;2132927;27;20390;-44
2022/09/08 00:04:05;;;;;;;;;;;;;;;;;;2132685;27;19969;-44
2022/09/08 00:05:05;;;;;;;;;;;;;;;;;;2132704;27;19933;-44
2022/09/08 00:06:06;;;;;;;;;;;;;;;;;;2132736;27;19930;-44
2022/09/08 00:07:08;;;;;;;;;;;;;;;;;;2132647;27;19923;-44
2022/09/08 00:08:09;;;;;;;;;;;;;;;;;;2132719;27;19923;-43
2022/09/08 00:09:10;;;;;;;;;;;;;;;;;;2132620;27;19932;-43
2022/09/08 00:10:11;;;;;;;;;;;;;;;;;;2132729;27;19930;-43
2022/09/08 00:11:12;;;;;;;;;;;;;;;;;;2132331;27;19923;-43
2022/09/08 00:12:14;;;;;;;;;;;;;;;;;;2132962;27;19983;-44
2022/09/08 00:13:14;;;;;;;;;;;;;;;;;;2132673;27;20264;-44
2022/09/08 00:14:15;;;;;;;;;;;;;;;;;;2132804;27;19933;-44
2022/09/08 00:15:16;;;;;;;;;;;;;;;;;;2132625;27;19931;-44
2022/09/08 00:16:18;;;;;;;;;;;;;;;;;;2132530;27;19964;-44
2022/09/08 00:17:19;;;;;;;;;;;;;;;;;;2132626;27;20438;-44
2022/09/08 00:18:20;;;;;;;;;;;;;;;;;;2132636;27;20005;-45
2022/09/08 00:19:20;;;;;;;;;;;;;;;;;;2132873;27;20081;-44
2022/09/08 00:20:21;;;;;;;;;;;;;;;;;;2132621;27;20164;-44
2022/09/08 00:21:22;;;;;;;;;;;;;;;;;;2132525;27;19930;-43
2022/09/08 00:22:24;;;;;;;;;;;;;;;;;;2132671;27;19944;-44
2022/09/08 00:23:24;;;;;;;;;;;;;;;;;;2132721;27;19930;-44
2022/09/08 00:24:26;;;;;;;;;;;;;;;;;;2132671;27;20025;-44
2022/09/08 00:25:26;;;;;;;;;;;;;;;;;;2132739;27;20432;-45
2022/09/08 00:26:27;;;;;;;;;;;;;;;;;;2132548;27;19923;-44
2022/09/08 00:27:28;;;;;;;;;;;;;;;;;;2132391;27;19923;-44
2022/09/08 00:28:30;;;;;;;;;;;;;;;;;;2132791;27;20002;-44
2022/09/08 00:29:30;;;;;;;;;;;;;;;;;;2132516;27;19930;-44
2022/09/08 00:30:31;;;;;;;;;;;;;;;;;;2132587;27;19923;-44
2022/09/08 00:31:32;;;;;;;;;;;;;;;;;;2132355;27;19927;-44
2022/09/08 00:32:33;;;;;;;;;;;;;;;;;;2132558;27;19966;-43
2022/09/08 00:33:34;;;;;;;;;;;;;;;;;;2132436;27;19951;-44
2022/09/08 00:34:35;;;;;;;;;;;;;;;;;;2132708;27;20162;-44
2022/09/08 00:35:35;;;;;;;;;;;;;;;;;;2132298;27;20237;-44
2022/09/08 00:36:37;;;;;;;;;;;;;;;;;;2132524;27;19966;-44
2022/09/08 00:37:37;;;;;;;;;;;;;;;;;;2132849;27;20390;-41
2022/09/08 00:38:38;;;;;;;;;;;;;;;;;;2132468;27;19965;-40
2022/09/08 00:39:39;;;;;;;;;;;;;;;;;;2132611;27;20387;-41
2022/09/08 00:40:40;;;;;;;;;;;;;;;;;;2132554;27;20381;-40
2022/09/08 00:41:42;;;;;;;;;;;;;;;;;;2132564;27;19923;-40
2022/09/08 00:42:43;;;;;;;;;;;;;;;;;;2132501;27;19946;-40
2022/09/08 00:43:43;;;;;;;;;;;;;;;;;;2132509;27;19930;-41
2022/09/08 00:44:48;;;;;;;;;;;;;;;;;;2132425;27;19976;-41
2022/09/08 00:45:49;;;;;;;;;;;;;;;;;;2132655;27;20268;-40
2022/09/08 00:46:50;;;;;;;;;;;;;;;;;;2132476;27;19965;-40
2022/09/08 00:47:51;;;;;;;;;;;;;;;;;;2132592;27;19923;-41
2022/09/08 00:48:53;;;;;;;;;;;;;;;;;;2132460;27;19945;-41
2022/09/08 00:49:54;;;;;;;;;;;;;;;;;;2132452;27;19946;-40
2022/09/08 00:50:55;;;;;;;;;;;;;;;;;;2132515;27;20257;-40
2022/09/08 00:51:55;;;;;;;;;;;;;;;;;;2132342;27;19944;-41
2022/09/08 00:53:00;;;;;;;;;;;;;;;;;;2132586;27;20362;-40
2022/09/08 00:54:01;;;;;;;;;;;;;;;;;;2132380;27;19934;-40
2022/09/08 00:55:02;;;;;;;;;;;;;;;;;;2132568;27;19958;-41
2022/09/08 00:56:05;;;;;;;;;;;;;;;;;;2132373;27;20372;-41
2022/09/08 00:57:06;;;;;;;;;;;;;;;;;;2132432;27;20020;-40
2022/09/08 00:58:06;;;;;;;;;;;;;;;;;;2132432;27;20385;-41
2022/09/08 00:59:07;;;;;;;;;;;;;;;;;;2132706;27;20402;-44
2022/09/08 01:00:08;;;;;;;;;;;;;;;;;;2132393;27;19923;-44
2022/09/08 01:01:09;;;;;;;;;;;;;;;;;;2132346;27;19927;-44
2022/09/08 01:02:11;;;;;;;;;;;;;;;;;;2132402;27;20299;-40
2022/09/08 01:03:12;;;;;;;;;;;;;;;;;;2132335;27;20014;-40
2022/09/08 01:04:12;;;;;;;;;;;;;;;;;;2132405;27;19930;-41
2022/09/08 01:05:13;;;;;;;;;;;;;;;;;;2132285;27;20040;-40
2022/09/08 01:06:14;;;;;;;;;;;;;;;;;;2132391;27;19967;-41
2022/09/08 01:12:44;;;;;;;;;;;;;;;;;;2131489;27;19923;-46
2022/09/08 01:13:44;;;;;;;;;;;;;;;;;;2132253;27;19923;-44
2022/09/08 01:14:45;;;;;;;;;;;;;;;;;;2132172;27;19978;-43
2022/09/08 01:15:46;;;;;;;;;;;;;;;;;;2132367;27;19923;-45
2022/09/08 01:16:48;;;;;;;;;;;;;;;;;;2132131;27;20023;-43
2022/09/08 01:17:49;;;;;;;;;;;;;;;;;;2132179;27;20296;-45
2022/09/08 01:18:50;;;;;;;;;;;;;;;;;;2132278;27;19933;-45
2022/09/08 01:19:51;;;;;;;;;;;;;;;;;;2132338;27;19946;-44
2022/09/08 01:20:53;;;;;;;;;;;;;;;;;;2132168;27;20033;-44
2022/09/08 01:21:53;;;;;;;;;;;;;;;;;;2132110;27;20383;-44
2022/09/08 01:22:54;;;;;;;;;;;;;;;;;;2132136;27;19923;-44
2022/09/08 01:23:55;;;;;;;;;;;;;;;;;;2132180;27;19966;-44
2022/09/08 01:24:56;;;;;;;;;;;;;;;;;;2132338;27;20051;-45
2022/09/08 01:25:56;;;;;;;;;;;;;;;;;;2132218;27;19923;-44
2022/09/08 01:26:57;;;;;;;;;;;;;;;;;;2132229;27;20346;-44
2022/09/08 01:27:58;;;;;;;;;;;;;;;;;;2132148;27;19927;-43
2022/09/08 01:28:59;;;;;;;;;;;;;;;;;;2132329;27;19927;-44
2022/09/08 01:30:00;;;;;;;;;;;;;;;;;;2132067;27;19927;-44
2022/09/08 01:31:01;;;;;;;;;;;;;;;;;;2132074;27;19978;-43
2022/09/08 01:32:01;;;;;;;;;;;;;;;;;;2131872;27;20067;-45
2022/09/08 01:33:02;;;;;;;;;;;;;;;;;;2132152;27;19935;-43
2022/09/08 01:34:03;;;;;;;;;;;;;;;;;;2132225;27;19948;-43
2022/09/08 01:35:04;;;;;;;;;;;;;;;;;;2132148;27;19975;-43
2022/09/08 01:36:05;;;;;;;;;;;;;;;;;;2132127;27;19934;-44
2022/09/08 01:37:06;;;;;;;;;;;;;;;;;;2132044;27;19962;-45
2022/09/08 01:38:06;;;;;;;;;;;;;;;;;;2132221;27;19952;-44
2022/09/08 01:39:07;;;;;;;;;;;;;;;;;;2131830;27;20394;-45
2022/09/08 01:40:08;;;;;;;;;;;;;;;;;;2131839;27;19934;-44
2022/09/08 01:41:09;;;;;;;;;;;;;;;;;;2132063;27;19923;-44
2022/09/08 01:42:10;;;;;;;;;;;;;;;;;;2131956;27;19930;-45
2022/09/08 01:43:11;;;;;;;;;;;;;;;;;;2132196;27;19923;-43
2022/09/08 01:44:12;;;;;;;;;;;;;;;;;;2132106;27;20065;-44
2022/09/08 01:45:12;;;;;;;;;;;;;;;;;;2132177;27;19930;-44
2022/09/08 01:46:13;;;;;;;;;;;;;;;;;;2131925;27;19974;-44
2022/09/08 01:47:14;;;;;;;;;;;;;;;;;;2132159;27;19930;-45
2022/09/08 01:48:15;;;;;;;;;;;;;;;;;;2132047;27;19931;-44
2022/09/08 01:49:15;;;;;;;;;;;;;;;;;;2132070;27;19934;-44
2022/09/08 01:50:16;;;;;;;;;;;;;;;;;;2132106;27;19923;-44
2022/09/08 01:51:17;;;;;;;;;;;;;;;;;;2131973;27;20287;-44
2022/09/08 01:52:18;;;;;;;;;;;;;;;;;;2132070;27;19923;-44
2022/09/08 01:53:19;;;;;;;;;;;;;;;;;;2132044;27;20190;-44
2022/09/08 01:54:20;;;;;;;;;;;;;;;;;;2132092;27;19923;-44
2022/09/08 01:55:21;;;;;;;;;;;;;;;;;;2132020;27;19930;-44
2022/09/08 01:56:22;;;;;;;;;;;;;;;;;;2132040;27;19961;-44
2022/09/08 01:57:23;;;;;;;;;;;;;;;;;;2132014;27;20333;-44
2022/09/08 01:58:24;;;;;;;;;;;;;;;;;;2132110;27;19923;-44
2022/09/08 01:59:24;;;;;;;;;;;;;;;;;;2131933;27;19923;-44
2022/09/08 02:00:25;;;;;;;;;;;;;;;;;;2132001;27;19974;-44
2022/09/08 02:01:26;;;;;;;;;;;;;;;;;;2131821;27;19923;-44
2022/09/08 02:02:27;;;;;;;;;;;;;;;;;;2132052;27;19975;-44
2022/09/08 02:03:28;;;;;;;;;;;;;;;;;;2132013;27;20006;-44
2022/09/08 02:04:29;;;;;;;;;;;;;;;;;;2131934;27;19983;-44
2022/09/08 02:05:30;;;;;;;;;;;;;;;;;;2132078;27;20423;-44
2022/09/08 02:06:31;;;;;;;;;;;;;;;;;;2131847;27;20022;-44
2022/09/08 02:07:31;;;;;;;;;;;;;;;;;;2131952;27;19930;-44
2022/09/08 02:08:32;;;;;;;;;;;;;;;;;;2131851;27;19934;-43
2022/09/08 02:09:33;;;;;;;;;;;;;;;;;;2131935;27;19927;-43
2022/09/08 02:10:34;;;;;;;;;;;;;;;;;;2131908;27;19970;-44
2022/09/08 02:11:35;;;;;;;;;;;;;;;;;;2131709;27;19971;-45
2022/09/08 02:12:35;;;;;;;;;;;;;;;;;;2131957;27;20342;-44
2022/09/08 02:13:36;;;;;;;;;;;;;;;;;;2132052;27;19979;-44
2022/09/08 02:14:37;;;;;;;;;;;;;;;;;;2131972;27;20325;-44
2022/09/08 02:15:38;;;;;;;;;;;;;;;;;;2132045;27;19923;-44
2022/09/08 02:16:39;;;;;;;;;;;;;;;;;;2131924;27;20006;-45
2022/09/08 02:17:39;;;;;;;;;;;;;;;;;;2131903;27;20310;-46
2022/09/08 02:18:40;;;;;;;;;;;;;;;;;;2131897;27;20001;-45
2022/09/08 02:19:41;;;;;;;;;;;;;;;;;;2131924;27;19923;-44
2022/09/08 02:20:42;;;;;;;;;;;;;;;;;;2131989;27;19962;-45
2022/09/08 02:21:43;;;;;;;;;;;;;;;;;;2131722;27;19927;-44
2022/09/08 02:22:44;;;;;;;;;;;;;;;;;;2131907;27;19923;-45
2022/09/08 02:23:44;;;;;;;;;;;;;;;;;;2131827;27;20017;-44
2022/09/08 02:24:45;;;;;;;;;;;;;;;;;;2131983;27;20220;-45
2022/09/08 02:25:46;;;;;;;;;;;;;;;;;;2131722;27;19927;-45
2022/09/08 02:26:47;;;;;;;;;;;;;;;;;;2131689;27;19968;-45
2022/09/08 02:27:48;;;;;;;;;;;;;;;;;;2131709;27;19930;-44
2022/09/08 02:28:51;;;;;;;;;;;;;;;;;;2131811;27;20078;-46
2022/09/08 02:29:51;;;;;;;;;;;;;;;;;;2132125;27;19923;-45
2022/09/08 02:30:52;;;;;;;;;;;;;;;;;;2131933;27;20033;-42
2022/09/08 02:31:53;;;;;;;;;;;;;;;;;;2131902;27;19923;-42
2022/09/08 02:32:54;;;;;;;;;;;;;;;;;;2131832;27;20284;-41
2022/09/08 02:33:55;;;;;;;;;;;;;;;;;;2131787;27;20041;-41
2022/09/08 02:34:56;;;;;;;;;;;;;;;;;;2131891;27;19926;-41
2022/09/08 02:35:57;;;;;;;;;;;;;;;;;;2131784;27;19946;-41
2022/09/08 02:36:58;;;;;;;;;;;;;;;;;;2131851;27;20379;-41
2022/09/08 02:37:58;;;;;;;;;;;;;;;;;;2131747;27;20341;-41
2022/09/08 02:38:59;;;;;;;;;;;;;;;;;;2131770;27;19923;-41
2022/09/08 02:40:02;;;;;;;;;;;;;;;;;;2131707;27;20379;-41
2022/09/08 02:41:04;;;;;;;;;;;;;;;;;;2131771;27;20340;-41
2022/09/08 02:42:04;;;;;;;;;;;;;;;;;;2131637;27;20337;-41
2022/09/08 02:43:05;;;;;;;;;;;;;;;;;;2131874;27;19948;-41
2022/09/08 02:44:06;;;;;;;;;;;;;;;;;;2131728;27;20379;-41
2022/09/08 02:45:08;;;;;;;;;;;;;;;;;;2131799;27;19931;-41
2022/09/08 02:46:09;;;;;;;;;;;;;;;;;;2131806;27;19923;-41
2022/09/08 02:47:10;;;;;;;;;;;;;;;;;;2131778;27;20284;-41
2022/09/08 02:48:11;;;;;;;;;;;;;;;;;;2132030;27;19911;-41
2022/09/08 02:49:12;;;;;;;;;;;;;;;;;;2131674;27;19998;-41
2022/09/08 02:50:13;;;;;;;;;;;;;;;;;;2131689;27;19930;-41
2022/09/08 02:51:14;;;;;;;;;;;;;;;;;;2131474;27;20025;-40
2022/09/08 02:52:15;;;;;;;;;;;;;;;;;;2133300;27;19927;-40
2022/09/08 02:53:16;;;;;;;;;;;;;;;;;;2133182;27;19923;-40
2022/09/08 02:54:16;;;;;;;;;;;;;;;;;;2133330;27;20427;-40
2022/09/08 02:55:17;;;;;;;;;;;;;;;;;;2133279;27;20011;-40
2022/09/08 02:56:18;;;;;;;;;;;;;;;;;;2133309;27;20399;-40
2022/09/08 02:57:20;;;;;;;;;;;;;;;;;;2133283;27;19922;-40
2022/09/08 02:58:21;;;;;;;;;;;;;;;;;;2133321;27;19930;-40
2022/09/08 02:59:22;;;;;;;;;;;;;;;;;;2133365;27;20287;-40
2022/09/08 03:00:22;;;;;;;;;;;;;;;;;;2133122;27;20333;-40
2022/09/08 03:01:23;;;;;;;;;;;;;;;;;;2133249;27;19923;-40
2022/09/08 03:02:24;;;;;;;;;;;;;;;;;;2133186;27;20287;-40
2022/09/08 03:03:25;;;;;;;;;;;;;;;;;;2133094;27;20015;-40
2022/09/08 03:04:26;;;;;;;;;;;;;;;;;;2133132;27;19966;-40
2022/09/08 03:05:27;;;;;;;;;;;;;;;;;;2133105;27;19923;-40
2022/09/08 03:06:28;;;;;;;;;;;;;;;;;;2133119;27;19930;-40
2022/09/08 03:07:29;;;;;;;;;;;;;;;;;;2133223;27;19930;-39
2022/09/08 03:08:30;;;;;;;;;;;;;;;;;;2133265;27;20005;-40
2022/09/08 03:09:31;;;;;;;;;;;;;;;;;;2133088;27;20387;-40
2022/09/08 03:10:31;;;;;;;;;;;;;;;;;;2133082;27;19972;-40
2022/09/08 03:11:32;;;;;;;;;;;;;;;;;;2132718;27;19931;-40
2022/09/08 03:12:33;;;;;;;;;;;;;;;;;;2133219;27;19958;-40
2022/09/08 03:13:35;;;;;;;;;;;;;;;;;;2133071;27;20268;-40
2022/09/08 03:14:36;;;;;;;;;;;;;;;;;;2133346;27;20003;-44
2022/09/08 03:15:37;;;;;;;;;;;;;;;;;;2133033;27;20284;-44
2022/09/08 03:16:39;;;;;;;;;;;;;;;;;;2133339;27;19923;-40
2022/09/08 03:17:39;;;;;;;;;;;;;;;;;;2133027;27;20364;-39
2022/09/08 03:18:40;;;;;;;;;;;;;;;;;;2133035;27;19934;-39
2022/09/08 03:19:41;;;;;;;;;;;;;;;;;;2133247;27;20477;-40
2022/09/08 03:20:43;;;;;;;;;;;;;;;;;;2133169;27;20014;-44
2022/09/08 03:21:44;;;;;;;;;;;;;;;;;;2133058;27;19927;-44
2022/09/08 03:22:45;;;;;;;;;;;;;;;;;;2132904;27;20018;-44
2022/09/08 03:23:46;;;;;;;;;;;;;;;;;;2132762;27;19977;-44
2022/09/08 03:24:47;;;;;;;;;;;;;;;;;;2133005;27;19933;-44
2022/09/08 03:25:47;;;;;;;;;;;;;;;;;;2133118;27;20371;-44
2022/09/08 03:26:48;;;;;;;;;;;;;;;;;;2133069;27;19957;-44
2022/09/08 03:27:49;;;;;;;;;;;;;;;;;;2132972;27;20311;-45
2022/09/08 03:28:50;;;;;;;;;;;;;;;;;;2133255;27;19923;-44
2022/09/08 03:29:51;;;;;;;;;;;;;;;;;;2133079;27;20385;-44
2022/09/08 03:30:51;;;;;;;;;;;;;;;;;;2133075;27;19923;-44
2022/09/08 03:31:53;;;;;;;;;;;;;;;;;;2132797;27;19923;-45
2022/09/08 03:32:53;;;;;;;;;;;;;;;;;;2133209;27;19923;-43
2022/09/08 03:33:55;;;;;;;;;;;;;;;;;;2132954;27;20288;-44
2022/09/08 03:34:55;;;;;;;;;;;;;;;;;;2133119;27;20237;-44
2022/09/08 03:35:56;;;;;;;;;;;;;;;;;;2132861;27;19946;-44
2022/09/08 03:36:57;;;;;;;;;;;;;;;;;;2132796;27;20390;-44
2022/09/08 03:37:58;;;;;;;;;;;;;;;;;;2132919;27;20268;-44
2022/09/08 03:38:59;;;;;;;;;;;;;;;;;;2133029;27;19930;-43
2022/09/08 03:40:00;;;;;;;;;;;;;;;;;;2133368;27;20370;-40
2022/09/08 03:41:01;;;;;;;;;;;;;;;;;;2133291;27;19923;-40
2022/09/08 03:42:02;;;;;;;;;;;;;;;;;;2132999;27;20283;-39
2022/09/08 03:43:03;;;;;;;;;;;;;;;;;;2132879;27;19930;-40
2022/09/08 03:44:03;;;;;;;;;;;;;;;;;;2133058;27;19923;-40
2022/09/08 03:45:07;;;;;;;;;;;;;;;;;;2132877;27;19938;-40
2022/09/08 03:46:07;;;;;;;;;;;;;;;;;;2132842;27;19937;-40
2022/09/08 03:47:08;;;;;;;;;;;;;;;;;;2132789;27;19967;-40
2022/09/08 03:48:09;;;;;;;;;;;;;;;;;;2133114;27;19923;-40
2022/09/08 03:49:10;;;;;;;;;;;;;;;;;;2133106;27;19923;-44
2022/09/08 03:50:11;;;;;;;;;;;;;;;;;;2133062;27;19967;-40
2022/09/08 03:51:12;;;;;;;;;;;;;;;;;;2132912;27;19930;-44
2022/09/08 03:52:12;;;;;;;;;;;;;;;;;;2132751;27;19930;-43
2022/09/08 03:53:13;;;;;;;;;;;;;;;;;;2132811;27;19922;-44
2022/09/08 03:55:33;;;;;;;;;;;;;;;;;;2132861;27;19927;-44
2022/09/08 03:56:34;;;;;;;;;;;;;;;;;;2132658;27;19927;-44
2022/09/08 03:57:35;;;;;;;;;;;;;;;;;;2133014;27;19923;-43
2022/09/08 03:58:36;;;;;;;;;;;;;;;;;;2133204;27;20009;-43
2022/09/08 03:59:37;;;;;;;;;;;;;;;;;;2132925;27;20275;-43
2022/09/08 04:00:38;;;;;;;;;;;;;;;;;;2132827;27;19968;-43
2022/09/08 04:01:39;;;;;;;;;;;;;;;;;;2132734;27;19975;-44
2022/09/08 04:02:40;;;;;;;;;;;;;;;;;;2132142;27;19927;-45
2022/09/08 04:03:41;;;;;;;;;;;;;;;;;;2132977;27;19927;-43
2022/09/08 04:04:45;;;;;;;;;;;;;;;;;;2133056;27;19975;-40
2022/09/08 04:05:46;;;;;;;;;;;;;;;;;;2132664;27;19994;-40
2022/09/08 04:06:47;;;;;;;;;;;;;;;;;;2132766;27;20013;-40
2022/09/08 04:07:48;;;;;;;;;;;;;;;;;;2132734;27;20419;-40
2022/09/08 04:08:48;;;;;;;;;;;;;;;;;;2132667;27;19923;-40
2022/09/08 04:09:49;;;;;;;;;;;;;;;;;;2132747;27;20443;-40
2022/09/08 04:10:50;;;;;;;;;;;;;;;;;;2132830;27;19923;-40
2022/09/08 04:11:51;;;;;;;;;;;;;;;;;;2132303;27;19954;-40
2022/09/08 04:12:52;;;;;;;;;;;;;;;;;;2132649;27;19924;-40
2022/09/08 04:13:53;;;;;;;;;;;;;;;;;;2132823;27;20016;-40
2022/09/08 04:14:53;;;;;;;;;;;;;;;;;;2132666;27;20030;-39
2022/09/08 04:15:54;;;;;;;;;;;;;;;;;;2132693;27;19927;-40
2022/09/08 04:16:55;;;;;;;;;;;;;;;;;;2132580;27;19923;-40
2022/09/08 04:17:56;;;;;;;;;;;;;;;;;;2132764;27;20360;-40
2022/09/08 04:18:57;;;;;;;;;;;;;;;;;;2132511;27;19931;-40
2022/09/08 04:19:57;;;;;;;;;;;;;;;;;;2132981;27;19931;-44
2022/09/08 04:20:59;;;;;;;;;;;;;;;;;;2132385;27;19959;-44
2022/09/08 04:22:00;;;;;;;;;;;;;;;;;;2132741;27;19923;-44
2022/09/08 04:23:00;;;;;;;;;;;;;;;;;;2132547;27;19927;-45
2022/09/08 04:24:01;;;;;;;;;;;;;;;;;;2132727;27;19975;-44
2022/09/08 04:25:02;;;;;;;;;;;;;;;;;;2132592;27;19923;-44
2022/09/08 04:26:03;;;;;;;;;;;;;;;;;;2132799;27;19923;-44
2022/09/08 04:27:04;;;;;;;;;;;;;;;;;;2132648;27;19923;-45
2022/09/08 04:28:05;;;;;;;;;;;;;;;;;;2132538;27;19966;-44
2022/09/08 04:29:05;;;;;;;;;;;;;;;;;;2132384;27;19931;-44
2022/09/08 04:30:07;;;;;;;;;;;;;;;;;;2132498;27;20023;-44
2022/09/08 04:31:10;;;;;;;;;;;;;;;;;;2132863;27;19923;-40
2022/09/08 04:32:11;;;;;;;;;;;;;;;;;;2132508;27;19938;-40
2022/09/08 04:33:11;;;;;;;;;;;;;;;;;;2132526;27;19923;-40
2022/09/08 04:34:13;;;;;;;;;;;;;;;;;;2132495;27;20019;-40
2022/09/08 04:35:14;;;;;;;;;;;;;;;;;;2132547;27;19942;-40
2022/09/08 04:36:15;;;;;;;;;;;;;;;;;;2132559;27;19923;-40
2022/09/08 04:37:26;;;;;;;;;;;;;;;;;;2132690;27;19931;-40
2022/09/08 04:38:27;;;;;;;;;;;;;;;;;;2132653;27;19923;-40
2022/09/08 04:39:28;;;;;;;;;;;;;;;;;;2132426;27;20002;-40
2022/09/08 04:40:29;;;;;;;;;;;;;;;;;;2132537;27;20288;-40
2022/09/08 04:41:30;;;;;;;;;;;;;;;;;;2132456;27;19929;-40
2022/09/08 04:42:31;;;;;;;;;;;;;;;;;;2132596;27;19967;-40
2022/09/08 04:43:31;;;;;;;;;;;;;;;;;;2132525;27;19975;-40
2022/09/08 04:44:32;;;;;;;;;;;;;;;;;;2132618;27;19934;-40
2022/09/08 04:45:33;;;;;;;;;;;;;;;;;;2132529;27;19952;-40
2022/09/08 04:46:34;;;;;;;;;;;;;;;;;;2132522;27;19980;-41
2022/09/08 04:47:35;;;;;;;;;;;;;;;;;;2132617;27;19931;-40
2022/09/08 04:48:36;;;;;;;;;;;;;;;;;;2132543;27;20376;-40
2022/09/08 04:49:37;;;;;;;;;;;;;;;;;;2132437;27;19923;-40
2022/09/08 04:50:38;;;;;;;;;;;;;;;;;;2132372;27;19978;-40
2022/09/08 04:51:39;;;;;;;;;;;;;;;;;;2132976;27;19923;-44
2022/09/08 04:52:40;;;;;;;;;;;;;;;;;;2132504;27;19930;-44
2022/09/08 04:53:41;;;;;;;;;;;;;;;;;;2132592;27;19952;-44
2022/09/08 04:54:42;;;;;;;;;;;;;;;;;;2132383;27;19923;-45
2022/09/08 04:55:43;;;;;;;;;;;;;;;;;;2132575;27;19930;-44
2022/09/08 04:56:44;;;;;;;;;;;;;;;;;;2132312;27;20375;-44
2022/09/08 04:57:45;;;;;;;;;;;;;;;;;;2132350;27;19923;-45
2022/09/08 04:58:46;;;;;;;;;;;;;;;;;;2132808;27;20008;-41
2022/09/08 04:59:46;;;;;;;;;;;;;;;;;;2132332;27;20284;-41
2022/09/08 05:00:47;;;;;;;;;;;;;;;;;;2132447;27;19956;-40
2022/09/08 05:01:49;;;;;;;;;;;;;;;;;;2132315;27;20390;-41
2022/09/08 05:02:49;;;;;;;;;;;;;;;;;;2132561;27;19923;-45
2022/09/08 05:03:51;;;;;;;;;;;;;;;;;;2132286;27;19930;-45
2022/09/08 05:04:52;;;;;;;;;;;;;;;;;;2132538;27;20014;-44
2022/09/08 05:05:56;;;;;;;;;;;;;;;;;;2132439;27;20137;-44
2022/09/08 05:06:57;;;;;;;;;;;;;;;;;;2132232;27;19927;-44
2022/09/08 05:07:57;;;;;;;;;;;;;;;;;;2132295;27;19930;-44
2022/09/08 05:08:58;;;;;;;;;;;;;;;;;;2132422;27;19931;-46
2022/09/08 05:10:00;;;;;;;;;;;;;;;;;;2132657;27;19923;-45
2022/09/08 05:11:01;;;;;;;;;;;;;;;;;;2132127;27;19927;-44
2022/09/08 05:12:02;;;;;;;;;;;;;;;;;;2132427;27;19923;-41
2022/09/08 05:13:03;;;;;;;;;;;;;;;;;;2132262;27;20257;-41
2022/09/08 05:14:03;;;;;;;;;;;;;;;;;;2131781;27;19923;-41
2022/09/08 05:15:04;;;;;;;;;;;;;;;;;;2131667;27;19927;-40
2022/09/08 05:16:05;;;;;;;;;;;;;;;;;;2132401;27;19938;-41
2022/09/08 05:17:06;;;;;;;;;;;;;;;;;;2132384;27;19926;-41
2022/09/08 05:18:07;;;;;;;;;;;;;;;;;;2132483;27;20300;-44
2022/09/08 05:19:08;;;;;;;;;;;;;;;;;;2132218;27;19934;-45
2022/09/08 05:20:08;;;;;;;;;;;;;;;;;;2132255;27;19967;-48
2022/09/08 05:21:09;;;;;;;;;;;;;;;;;;2132205;27;20380;-45
2022/09/08 05:22:10;;;;;;;;;;;;;;;;;;2132137;27;20283;-44
2022/09/08 05:23:11;;;;;;;;;;;;;;;;;;2132211;27;19923;-45
2022/09/08 05:24:12;;;;;;;;;;;;;;;;;;2132343;27;20317;-44
2022/09/08 05:25:13;;;;;;;;;;;;;;;;;;2132222;27;19923;-45
2022/09/08 05:26:14;;;;;;;;;;;;;;;;;;2132192;27;19929;-45
2022/09/08 05:27:15;;;;;;;;;;;;;;;;;;2132673;27;20405;-41
2022/09/08 05:28:16;;;;;;;;;;;;;;;;;;2132269;27;20093;-41
2022/09/08 05:29:17;;;;;;;;;;;;;;;;;;2132373;27;19927;-41
2022/09/08 05:30:17;;;;;;;;;;;;;;;;;;2132533;27;19923;-44
2022/09/08 05:31:18;;;;;;;;;;;;;;;;;;2132408;27;19923;-42
2022/09/08 05:32:20;;;;;;;;;;;;;;;;;;2132274;27;19923;-41
2022/09/08 05:33:20;;;;;;;;;;;;;;;;;;2132131;27;20299;-41
2022/09/08 05:34:21;;;;;;;;;;;;;;;;;;2132317;27;20021;-41
2022/09/08 05:35:22;;;;;;;;;;;;;;;;;;2132165;27;19987;-41
2022/09/08 05:36:23;;;;;;;;;;;;;;;;;;2132397;27;19930;-41
2022/09/08 05:37:24;;;;;;;;;;;;;;;;;;2132245;27;19923;-41
2022/09/08 05:38:25;;;;;;;;;;;;;;;;;;2132146;27;19930;-41
2022/09/08 05:39:26;;;;;;;;;;;;;;;;;;2132346;27;19927;-44
2022/09/08 05:40:27;;;;;;;;;;;;;;;;;;2132243;27;19930;-47
2022/09/08 05:41:28;;;;;;;;;;;;;;;;;;2132212;27;19923;-44
2022/09/08 05:42:29;;;;;;;;;;;;;;;;;;2132072;27;19923;-45
2022/09/08 05:43:30;;;;;;;;;;;;;;;;;;2132101;27;19923;-45
2022/09/08 05:44:31;;;;;;;;;;;;;;;;;;2132527;27;19930;-41
2022/09/08 05:45:32;;;;;;;;;;;;;;;;;;2132742;27;19996;-44
2022/09/08 05:46:33;;;;;;;;;;;;;;;;;;2131907;27;19927;-45
2022/09/08 05:47:34;;;;;;;;;;;;;;;;;;2132112;27;20379;-43
2022/09/08 05:48:35;;;;;;;;;;;;;;;;;;2132402;27;19923;-40
2022/09/08 05:49:35;;;;;;;;;;;;;;;;;;2132043;27;19967;-40
2022/09/08 05:50:36;;;;;;;;;;;;;;;;;;2132253;27;19927;-44
2022/09/08 05:51:37;;;;;;;;;;;;;;;;;;2131834;27;19927;-44
2022/09/08 05:52:38;;;;;;;;;;;;;;;;;;2132455;27;19923;-40
2022/09/08 05:53:39;;;;;;;;;;;;;;;;;;2131942;27;19977;-40
2022/09/08 05:54:40;;;;;;;;;;;;;;;;;;2132003;27;19923;-40
2022/09/08 05:55:41;;;;;;;;;;;;;;;;;;2132088;27;19923;-40
2022/09/08 05:56:42;;;;;;;;;;;;;;;;;;2132082;27;20253;-40
2022/09/08 05:57:43;;;;;;;;;;;;;;;;;;2132229;27;19923;-40
2022/09/08 05:58:43;;;;;;;;;;;;;;;;;;2131979;27;20059;-41
2022/09/08 05:59:44;;;;;;;;;;;;;;;;;;2132077;27;20375;-41
2022/09/08 06:00:45;;;;;;;;;;;;;;;;;;2132244;27;20313;-41
2022/09/08 06:01:46;;;;;;;;;;;;;;;;;;2132007;27;19973;-41
2022/09/08 06:02:46;;;;;;;;;;;;;;;;;;2131912;27;19931;-41
2022/09/08 06:03:48;;;;;;;;;;;;;;;;;;2132023;27;19927;-41
2022/09/08 06:04:48;;;;;;;;;;;;;;;;;;2131996;27;20014;-41
2022/09/08 06:05:49;;;;;;;;;;;;;;;;;;2132112;27;19930;-41
2022/09/08 06:06:50;;;;;;;;;;;;;;;;;;2131905;27;19934;-41
2022/09/08 06:07:51;;;;;;;;;;;;;;;;;;2132113;27;19930;-41
2022/09/08 06:08:52;;;;;;;;;;;;;;;;;;2131878;27;19974;-41
2022/09/08 06:09:53;;;;;;;;;;;;;;;;;;2131865;27;19923;-41
2022/09/08 06:10:54;;;;;;;;;;;;;;;;;;2130585;27;19923;-44
2022/09/08 06:11:54;;;;;;;;;;;;;;;;;;2123171;27;20448;-44
2022/09/08 06:12:55;;;;;;;;;;;;;;;;;;2126997;27;19923;-43
2022/09/08 06:13:56;;;;;;;;;;;;;;;;;;2131901;27;20419;-43
2022/09/08 06:14:57;;;;;;;;;;;;;;;;;;2132016;27;20293;-43
2022/09/08 06:15:58;;;;;;;;;;;;;;;;;;2131787;27;20012;-44
2022/09/08 06:16:58;;;;;;;;;;;;;;;;;;2131810;27;19930;-44
2022/09/08 06:18:04;;;;;;;;;;;;;;;;;;2131944;27;20014;-43
2022/09/08 06:19:05;;;;;;;;;;;;;;;;;;2131975;27;19923;-43
2022/09/08 06:20:06;;;;;;;;;;;;;;;;;;2131874;27;19927;-43
2022/09/08 06:21:07;;;;;;;;;;;;;;;;;;2131797;27;19923;-43
2022/09/08 06:22:08;;;;;;;;;;;;;;;;;;2131718;27;19927;-43
2022/09/08 06:23:08;;;;;;;;;;;;;;;;;;2131981;27;19923;-44
2022/09/08 06:24:09;;;;;;;;;;;;;;;;;;2131806;27;20361;-44
2022/09/08 06:25:10;;;;;;;;;;;;;;;;;;2131775;27;19931;-43
2022/09/08 06:26:11;;;;;;;;;;;;;;;;;;2131587;27;20017;-44
2022/09/08 06:27:12;;;;;;;;;;;;;;;;;;2131835;27;19923;-44
2022/09/08 06:28:13;;;;;;;;;;;;;;;;;;2132179;27;20336;-41
2022/09/08 06:29:14;;;;;;;;;;;;;;;;;;2131843;27;19931;-41
2022/09/08 06:30:14;;;;;;;;;;;;;;;;;;2131774;27;20329;-41
2022/09/08 06:31:15;;;;;;;;;;;;;;;;;;2132069;27;19975;-41
2022/09/08 06:32:16;;;;;;;;;;;;;;;;;;2131932;27;19931;-43
2022/09/08 06:33:17;;;;;;;;;;;;;;;;;;2131777;27;20303;-44
2022/09/08 06:34:18;;;;;;;;;;;;;;;;;;2131765;27;19987;-43
2022/09/08 06:35:19;;;;;;;;;;;;;;;;;;2131788;27;19945;-44
2022/09/08 06:36:19;;;;;;;;;;;;;;;;;;2131644;27;19929;-44
2022/09/08 06:37:20;;;;;;;;;;;;;;;;;;2131923;27;19969;-44
2022/09/08 06:38:21;;;;;;;;;;;;;;;;;;2131822;27;20332;-45
2022/09/08 06:39:22;;;;;;;;;;;;;;;;;;2131910;27;19923;-44
2022/09/08 06:40:23;;;;;;;;;;;;;;;;;;2132363;27;19927;-41
2022/09/08 06:41:24;;;;;;;;;;;;;;;;;;2131766;27;19931;-41
2022/09/08 06:42:25;;;;;;;;;;;;;;;;;;2132228;27;19978;-41
2022/09/08 06:43:26;;;;;;;;;;;;;;;;;;2131978;27;19923;-41
2022/09/08 06:44:27;;;;;;;;;;;;;;;;;;2132055;27;20387;-41
2022/09/08 06:45:27;;;;;;;;;;;;;;;;;;2132098;27;19972;-41
2022/09/08 06:46:28;;;;;;;;;;;;;;;;;;2131986;27;19923;-44
2022/09/08 06:47:29;;;;;;;;;;;;;;;;;;2131676;27;19923;-47
2022/09/08 06:48:30;;;;;;;;;;;;;;;;;;2131713;27;20388;-44
2022/09/08 06:49:31;;;;;;;;;;;;;;;;;;2131760;27;20299;-46
2022/09/08 06:50:33;;;;;;;;;;;;;;;;;;2131771;27;19923;-44
2022/09/08 06:51:34;;;;;;;;;;;;;;;;;;2131589;27;19923;-44
2022/09/08 06:52:35;;;;;;;;;;;;;;;;;;2132230;27;20257;-46
2022/09/08 06:53:57;;;;;;;;;;;;;;;;;;2132051;27;19927;-42
2022/09/08 06:54:58;;;;;;;;;;;;;;;;;;2131779;27;19929;-41
2022/09/08 06:55:59;;;;;;;;;;;;;;;;;;2131602;27;19974;-42
2022/09/08 06:57:20;;;;;;;;;;;;;;;;;;2131573;27;19923;-42
2022/09/08 06:58:26;;;;;;;;;;;;;;;;;;2131897;27;19938;-42
2022/09/08 06:59:27;;;;;;;;;;;;;;;;;;2132044;27;20013;-41
2022/09/08 07:00:28;;;;;;;;;;;;;;;;;;2131999;27;19929;-42
2022/09/08 07:01:28;;;;;;;;;;;;;;;;;;2131665;27;20006;-41
2022/09/08 07:02:30;;;;;;;;;;;;;;;;;;2131792;27;19966;-41
2022/09/08 07:03:32;;;;;;;;;;;;;;;;;;2131567;27;19968;-41